sensor_id;sensor_type;location;lat;lon;timestamp;pressure;altitude;pressure_sealevel;temperature;humidity
11440;BME280;5776;51.814;4.510;2023-02-01T00:01:47;102127.56;;;7.12;100.00
11440;BME280;5776;51.814;4.510;2023-02-01T00:04:13;102119.19;;;7.14;100.00
11440;BME280;5776;51.814;4.510;2023-02-01T00:06:39;102115.09;;;7.11;100.00
11440;BME280;5776;51.814;4.510;2023-02-01T00:09:05;102105.94;;;7.12;100.00
11440;BME280;5776;51.814;4.510;2023-02-01T00:11:31;102110.28;;;7.13;100.00
11440;BME280;5776;51.814;4.510;2023-02-01T00:13:57;102109.09;;;7.09;100.00
11440;BME280;5776;51.814;4.510;2023-02-01T00:16:26;102120.16;;;7.08;100.00
11440;BME280;5776;51.814;4.510;2023-02-01T00:19:06;102123.06;;;7.06;100.00
11440;BME280;5776;51.814;4.510;2023-02-01T00:21:33;102116.72;;;7.01;100.00
11440;BME280;5776;51.814;4.510;2023-02-01T00:23:59;102123.63;;;6.97;100.00
11440;BME280;5776;51.814;4.510;2023-02-01T00:26:34;102114.13;;;6.94;100.00
11440;BME280;5776;51.814;4.510;2023-02-01T00:29:10;102117.28;;;6.91;100.00
11440;BME280;5776;51.814;4.510;2023-02-01T00:31:36;102118.13;;;6.91;100.00
11440;BME280;5776;51.814;4.510;2023-02-01T00:34:03;102117.75;;;6.88;100.00
11440;BME280;5776;51.814;4.510;2023-02-01T00:36:29;102127.16;;;6.85;100.00
11440;BME280;5776;51.814;4.510;2023-02-01T00:38:56;102123.75;;;6.90;100.00
11440;BME280;5776;51.814;4.510;2023-02-01T00:41:22;102114.59;;;6.91;100.00
11440;BME280;5776;51.814;4.510;2023-02-01T00:43:50;102127.88;;;6.92;100.00
11440;BME280;5776;51.814;4.510;2023-02-01T00:46:17;102124.59;;;6.90;100.00
11440;BME280;5776;51.814;4.510;2023-02-01T00:48:44;102122.22;;;6.94;100.00
11440;BME280;5776;51.814;4.510;2023-02-01T00:51:16;102124.94;;;6.94;100.00
11440;BME280;5776;51.814;4.510;2023-02-01T00:53:42;102129.50;;;6.93;100.00
11440;BME280;5776;51.814;4.510;2023-02-01T00:56:09;102110.00;;;6.91;100.00
11440;BME280;5776;51.814;4.510;2023-02-01T00:58:35;102105.91;;;6.89;100.00
11440;BME280;5776;51.814;4.510;2023-02-01T01:01:05;102095.69;;;6.91;100.00
11440;BME280;5776;51.814;4.510;2023-02-01T01:03:34;102089.22;;;6.92;100.00
11440;BME280;5776;51.814;4.510;2023-02-01T01:06:03;102089.81;;;6.94;100.00
11440;BME280;5776;51.814;4.510;2023-02-01T01:08:30;102096.28;;;6.93;100.00
11440;BME280;5776;51.814;4.510;2023-02-01T01:10:55;102104.59;;;6.91;100.00
11440;BME280;5776;51.814;4.510;2023-02-01T01:13:21;102102.16;;;6.90;100.00
11440;BME280;5776;51.814;4.510;2023-02-01T01:15:48;102091.78;;;6.87;100.00
11440;BME280;5776;51.814;4.510;2023-02-01T01:18:14;102086.50;;;6.92;100.00
11440;BME280;5776;51.814;4.510;2023-02-01T01:20:40;102085.47;;;6.93;100.00
11440;BME280;5776;51.814;4.510;2023-02-01T01:23:08;102096.28;;;6.93;100.00
11440;BME280;5776;51.814;4.510;2023-02-01T01:25:40;102099.59;;;6.95;100.00
11440;BME280;5776;51.814;4.510;2023-02-01T01:28:06;102096.63;;;6.97;100.00
11440;BME280;5776;51.814;4.510;2023-02-01T01:30:34;102096.63;;;6.97;100.00
11440;BME280;5776;51.814;4.510;2023-02-01T01:33:00;102087.59;;;6.91;100.00
11440;BME280;5776;51.814;4.510;2023-02-01T01:35:29;102090.50;;;6.89;100.00
11440;BME280;5776;51.814;4.510;2023-02-01T01:37:55;102087.13;;;6.94;100.00
11440;BME280;5776;51.814;4.510;2023-02-01T01:40:21;102089.81;;;6.94;100.00
11440;BME280;5776;51.814;4.510;2023-02-01T01:42:47;102089.09;;;6.87;100.00
11440;BME280;5776;51.814;4.510;2023-02-01T01:45:28;102089.56;;;6.84;100.00
11440;BME280;5776;51.814;4.510;2023-02-01T01:48:00;102096.63;;;6.85;100.00
11440;BME280;5776;51.814;4.510;2023-02-01T01:50:30;102098.25;;;6.86;100.00
11440;BME280;5776;51.814;4.510;2023-02-01T01:53:00;102098.94;;;6.81;100.00
11440;BME280;5776;51.814;4.510;2023-02-01T01:55:30;102094.16;;;6.83;100.00
11440;BME280;5776;51.814;4.510;2023-02-01T01:58:08;102092.88;;;6.86;100.00
11440;BME280;5776;51.814;4.510;2023-02-01T02:00:36;102087.25;;;6.87;100.00
11440;BME280;5776;51.814;4.510;2023-02-01T02:03:21;102091.66;;;6.82;100.00
11440;BME280;5776;51.814;4.510;2023-02-01T02:05:50;102088.53;;;6.85;100.00
11440;BME280;5776;51.814;4.510;2023-02-01T02:08:17;102083.94;;;6.85;100.00
11440;BME280;5776;51.814;4.510;2023-02-01T02:10:50;102081.94;;;6.81;100.00
11440;BME280;5776;51.814;4.510;2023-02-01T02:13:36;102080.88;;;6.82;100.00
11440;BME280;5776;51.814;4.510;2023-02-01T02:16:24;102085.44;;;6.81;100.00
11440;BME280;5776;51.814;4.510;2023-02-01T02:24:40;102065.50;;;6.82;100.00
11440;BME280;5776;51.814;4.510;2023-02-01T02:38:23;102051.16;;;6.82;100.00
11440;BME280;5776;51.814;4.510;2023-02-01T02:43:49;102045.31;;;6.85;100.00
11440;BME280;5776;51.814;4.510;2023-02-01T02:46:47;102051.63;;;6.79;100.00
11440;BME280;5776;51.814;4.510;2023-02-01T02:49:51;102054.34;;;6.79;100.00
11440;BME280;5776;51.814;4.510;2023-02-01T02:52:45;102066.44;;;6.76;100.00
11440;BME280;5776;51.814;4.510;2023-02-01T02:55:32;102063.03;;;6.81;100.00
11440;BME280;5776;51.814;4.510;2023-02-01T02:57:59;102066.22;;;6.78;100.00
11440;BME280;5776;51.814;4.510;2023-02-01T03:00:44;102069.94;;;6.77;100.00
11440;BME280;5776;51.814;4.510;2023-02-01T03:03:28;102068.53;;;6.74;100.00
11440;BME280;5776;51.814;4.510;2023-02-01T03:06:15;102065.13;;;6.79;100.00
11440;BME280;5776;51.814;4.510;2023-02-01T03:08:42;102056.69;;;6.75;100.00
11440;BME280;5776;51.814;4.510;2023-02-01T03:11:13;102048.81;;;6.74;100.00
11440;BME280;5776;51.814;4.510;2023-02-01T03:13:47;102054.81;;;6.76;100.00
11440;BME280;5776;51.814;4.510;2023-02-01T03:21:40;102046.25;;;6.79;100.00
11440;BME280;5776;51.814;4.510;2023-02-01T03:26:39;102024.03;;;6.77;100.00
11440;BME280;5776;51.814;4.510;2023-02-01T03:29:14;102024.41;;;6.80;100.00
11440;BME280;5776;51.814;4.510;2023-02-01T03:31:43;102026.28;;;6.80;100.00
11440;BME280;5776;51.814;4.510;2023-02-01T03:34:11;102024.03;;;6.77;100.00
11440;BME280;5776;51.814;4.510;2023-02-01T03:36:48;102030.84;;;6.79;100.00
11440;BME280;5776;51.814;4.510;2023-02-01T03:39:31;102038.38;;;6.77;100.00
11440;BME280;5776;51.814;4.510;2023-02-01T03:42:00;102035.09;;;6.75;100.00
11440;BME280;5776;51.814;4.510;2023-02-01T03:44:35;102033.00;;;6.77;100.00
11440;BME280;5776;51.814;4.510;2023-02-01T03:47:11;102030.50;;;6.76;100.00
11440;BME280;5776;51.814;4.510;2023-02-01T03:49:43;102024.28;;;6.75;100.00
11440;BME280;5776;51.814;4.510;2023-02-01T03:52:13;102035.91;;;6.76;100.00
11440;BME280;5776;51.814;4.510;2023-02-01T03:54:40;102040.25;;;6.77;100.00
11440;BME280;5776;51.814;4.510;2023-02-01T03:57:11;102032.63;;;6.74;100.00
11440;BME280;5776;51.814;4.510;2023-02-01T03:59:41;102025.09;;;6.76;100.00
11440;BME280;5776;51.814;4.510;2023-02-01T04:02:07;102021.34;;;6.77;100.00
11440;BME280;5776;51.814;4.510;2023-02-01T04:04:35;102026.75;;;6.77;100.00
11440;BME280;5776;51.814;4.510;2023-02-01T04:07:01;102034.84;;;6.77;100.00
11440;BME280;5776;51.814;4.510;2023-02-01T04:09:27;102035.31;;;6.74;100.00
11440;BME280;5776;51.814;4.510;2023-02-01T04:11:53;102026.63;;;6.71;100.00
11440;BME280;5776;51.814;4.510;2023-02-01T04:14:19;102032.63;;;6.74;100.00
11440;BME280;5776;51.814;4.510;2023-02-01T04:16:45;102030.72;;;6.74;100.00
11440;BME280;5776;51.814;4.510;2023-02-01T04:19:11;102040.13;;;6.71;100.00
11440;BME280;5776;51.814;4.510;2023-02-01T04:21:37;102039.09;;;6.73;100.00
11440;BME280;5776;51.814;4.510;2023-02-01T04:24:04;102037.41;;;6.71;100.00
11440;BME280;5776;51.814;4.510;2023-02-01T04:26:30;102043.41;;;6.74;100.00
11440;BME280;5776;51.814;4.510;2023-02-01T04:28:56;102040.13;;;6.71;100.00
11440;BME280;5776;51.814;4.510;2023-02-01T04:31:22;102042.00;;;6.71;100.00
11440;BME280;5776;51.814;4.510;2023-02-01T04:33:52;102040.13;;;6.71;100.00
11440;BME280;5776;51.814;4.510;2023-02-01T04:36:19;102032.03;;;6.71;100.00
11440;BME280;5776;51.814;4.510;2023-02-01T04:38:48;102041.78;;;6.73;100.00
11440;BME280;5776;51.814;4.510;2023-02-01T04:41:15;102040.94;;;6.72;100.00
11440;BME280;5776;51.814;4.510;2023-02-01T04:43:48;102046.34;;;6.72;100.00
11440;BME280;5776;51.814;4.510;2023-02-01T04:46:14;102053.03;;;6.69;100.00
11440;BME280;5776;51.814;4.510;2023-02-01T04:48:41;102045.50;;;6.71;100.00
11440;BME280;5776;51.814;4.510;2023-02-01T04:51:08;102030.97;;;6.73;100.00
11440;BME280;5776;51.814;4.510;2023-02-01T04:53:34;102036.38;;;6.73;100.00
11440;BME280;5776;51.814;4.510;2023-02-01T04:55:59;102033.91;;;6.71;100.00
11440;BME280;5776;51.814;4.510;2023-02-01T04:58:25;102033.09;;;6.70;100.00
11440;BME280;5776;51.814;4.510;2023-02-01T05:00:51;102028.03;;;6.74;100.00
11440;BME280;5776;51.814;4.510;2023-02-01T05:03:18;102025.81;;;6.71;100.00
11440;BME280;5776;51.814;4.510;2023-02-01T05:05:44;102029.91;;;6.74;100.00
11440;BME280;5776;51.814;4.510;2023-02-01T05:08:10;102017.00;;;6.76;100.00
11440;BME280;5776;51.814;4.510;2023-02-01T05:10:35;102031.78;;;6.73;100.00
11440;BME280;5776;51.814;4.510;2023-02-01T05:13:01;102025.59;;;6.73;100.00
11440;BME280;5776;51.814;4.510;2023-02-01T05:15:45;102027.22;;;6.74;100.00
11440;BME280;5776;51.814;4.510;2023-02-01T05:18:12;102022.19;;;6.77;100.00
11440;BME280;5776;51.814;4.510;2023-02-01T05:20:38;102025.31;;;6.74;100.00
11440;BME280;5776;51.814;4.510;2023-02-01T05:23:04;102025.31;;;6.74;100.00
11440;BME280;5776;51.814;4.510;2023-02-01T05:25:31;102030.50;;;6.76;100.00
11440;BME280;5776;51.814;4.510;2023-02-01T05:27:57;102035.44;;;6.79;100.00
11440;BME280;5776;51.814;4.510;2023-02-01T05:30:23;102047.19;;;6.73;100.00
11440;BME280;5776;51.814;4.510;2023-02-01T05:32:50;102038.00;;;6.74;100.00
11440;BME280;5776;51.814;4.510;2023-02-01T05:35:16;102035.91;;;6.76;100.00
11440;BME280;5776;51.814;4.510;2023-02-01T05:37:42;102038.81;;;6.74;100.00
11440;BME280;5776;51.814;4.510;2023-02-01T05:40:09;102039.31;;;6.71;100.00
11440;BME280;5776;51.814;4.510;2023-02-01T05:42:35;102028.28;;;6.73;100.00
11440;BME280;5776;51.814;4.510;2023-02-01T05:45:01;102030.72;;;6.74;100.00
11440;BME280;5776;51.814;4.510;2023-02-01T05:47:27;102019.94;;;6.74;100.00
11440;BME280;5776;51.814;4.510;2023-02-01T05:49:53;102030.97;;;6.73;100.00
11440;BME280;5776;51.814;4.510;2023-02-01T05:52:18;102030.72;;;6.74;100.00
11440;BME280;5776;51.814;4.510;2023-02-01T05:54:47;102032.63;;;6.74;100.00
11440;BME280;5776;51.814;4.510;2023-02-01T05:57:14;102023.47;;;6.75;100.00
11440;BME280;5776;51.814;4.510;2023-02-01T05:59:40;102035.31;;;6.74;100.00
11440;BME280;5776;51.814;4.510;2023-02-01T06:02:10;102033.44;;;6.74;100.00
11440;BME280;5776;51.814;4.510;2023-02-01T06:04:36;102041.78;;;6.73;100.00
11440;BME280;5776;51.814;4.510;2023-02-01T06:07:02;102041.78;;;6.73;100.00
11440;BME280;5776;51.814;4.510;2023-02-01T06:09:28;102045.88;;;6.75;100.00
11440;BME280;5776;51.814;4.510;2023-02-01T06:11:54;102051.88;;;6.77;100.00
11440;BME280;5776;51.814;4.510;2023-02-01T06:14:20;102061.28;;;6.75;100.00
11440;BME280;5776;51.814;4.510;2023-02-01T06:16:46;102060.69;;;6.73;100.00
11440;BME280;5776;51.814;4.510;2023-02-01T06:19:13;102051.50;;;6.74;100.00
11440;BME280;5776;51.814;4.510;2023-02-01T06:21:39;102053.41;;;6.73;100.00
11440;BME280;5776;51.814;4.510;2023-02-01T06:24:05;102051.28;;;6.75;100.00
11440;BME280;5776;51.814;4.510;2023-02-01T06:26:32;102054.81;;;6.76;100.00
11440;BME280;5776;51.814;4.510;2023-02-01T06:28:58;102057.50;;;6.76;100.00
11440;BME280;5776;51.814;4.510;2023-02-01T06:31:24;102057.03;;;6.79;100.00
11440;BME280;5776;51.814;4.510;2023-02-01T06:33:51;102054.59;;;6.77;100.00
11440;BME280;5776;51.814;4.510;2023-02-01T06:36:17;102055.88;;;6.75;100.00
11440;BME280;5776;51.814;4.510;2023-02-01T06:38:47;102052.09;;;6.76;100.00
11440;BME280;5776;51.814;4.510;2023-02-01T06:41:13;102055.03;;;6.74;100.00
11440;BME280;5776;51.814;4.510;2023-02-01T06:43:40;102057.50;;;6.76;100.00
11440;BME280;5776;51.814;4.510;2023-02-01T06:46:08;102051.63;;;6.79;100.00
11440;BME280;5776;51.814;4.510;2023-02-01T06:48:35;102047.91;;;6.80;100.00
11440;BME280;5776;51.814;4.510;2023-02-01T06:51:01;102057.63;;;6.81;100.00
11440;BME280;5776;51.814;4.510;2023-02-01T06:53:27;102049.88;;;6.84;100.00
11440;BME280;5776;51.814;4.510;2023-02-01T06:55:58;102052.56;;;6.84;100.00
11440;BME280;5776;51.814;4.510;2023-02-01T06:58:28;102041.22;;;6.82;100.00
11440;BME280;5776;51.814;4.510;2023-02-01T07:00:55;102038.13;;;6.79;100.00
11440;BME280;5776;51.814;4.510;2023-02-01T07:03:21;102033.31;;;6.81;100.00
11440;BME280;5776;51.814;4.510;2023-02-01T07:05:47;102044.47;;;6.84;100.00
11440;BME280;5776;51.814;4.510;2023-02-01T07:08:13;102042.25;;;6.81;100.00
11440;BME280;5776;51.814;4.510;2023-02-01T07:10:38;102038.97;;;6.91;100.00
11440;BME280;5776;51.814;4.510;2023-02-01T07:13:04;102042.16;;;6.88;100.00
11440;BME280;5776;51.814;4.510;2023-02-01T07:15:30;102038.16;;;6.90;100.00
11440;BME280;5776;51.814;4.510;2023-02-01T07:17:56;102039.19;;;6.89;100.00
11440;BME280;5776;51.814;4.510;2023-02-01T07:20:23;102047.06;;;6.91;100.00
11440;BME280;5776;51.814;4.510;2023-02-01T07:22:48;102050.84;;;6.90;100.00
11440;BME280;5776;51.814;4.510;2023-02-01T07:25:19;102062.69;;;6.89;100.00
11440;BME280;5776;51.814;4.510;2023-02-01T07:27:45;102071.03;;;6.87;100.00
11440;BME280;5776;51.814;4.510;2023-02-01T07:30:12;102067.50;;;6.87;100.00
11440;BME280;5776;51.814;4.510;2023-02-01T07:32:38;102067.63;;;6.92;100.00
11440;BME280;5776;51.814;4.510;2023-02-01T07:35:04;102070.56;;;6.90;100.00
11440;BME280;5776;51.814;4.510;2023-02-01T07:37:30;102073.25;;;6.90;100.00
11440;BME280;5776;51.814;4.510;2023-02-01T07:39:56;102076.78;;;6.91;100.00
11440;BME280;5776;51.814;4.510;2023-02-01T07:42:22;102070.56;;;6.90;100.00
11440;BME280;5776;51.814;4.510;2023-02-01T07:44:48;102071.16;;;6.92;100.00
11440;BME280;5776;51.814;4.510;2023-02-01T07:47:14;102073.59;;;6.94;100.00
11440;BME280;5776;51.814;4.510;2023-02-01T07:49:40;102085.47;;;6.93;100.00
11440;BME280;5776;51.814;4.510;2023-02-01T07:52:05;102082.78;;;6.93;100.00
11440;BME280;5776;51.814;4.510;2023-02-01T07:54:31;102092.75;;;6.92;100.00
11440;BME280;5776;51.814;4.510;2023-02-01T07:56:57;102095.81;;;6.96;100.00
11440;BME280;5776;51.814;4.510;2023-02-01T07:59:23;102102.50;;;6.93;100.00
11440;BME280;5776;51.814;4.510;2023-02-01T08:01:49;102100.88;;;6.92;100.00
11440;BME280;5776;51.814;4.510;2023-02-01T08:04:15;102106.28;;;6.92;100.00
11440;BME280;5776;51.814;4.510;2023-02-01T08:06:41;102101.09;;;6.91;100.00
11440;BME280;5776;51.814;4.510;2023-02-01T08:09:07;102101.91;;;6.91;100.00
11440;BME280;5776;51.814;4.510;2023-02-01T08:11:34;102101.69;;;6.93;100.00
11440;BME280;5776;51.814;4.510;2023-02-01T08:14:02;102106.03;;;6.94;100.00
11440;BME280;5776;51.814;4.510;2023-02-01T08:16:28;102097.91;;;6.94;100.00
11440;BME280;5776;51.814;4.510;2023-02-01T08:18:54;102088.78;;;6.95;100.00
11440;BME280;5776;51.814;4.510;2023-02-01T08:21:23;102086.06;;;6.95;100.00
11440;BME280;5776;51.814;4.510;2023-02-01T08:23:49;102080.91;;;6.93;100.00
11440;BME280;5776;51.814;4.510;2023-02-01T08:26:24;102090.41;;;6.96;100.00
11440;BME280;5776;51.814;4.510;2023-02-01T08:28:56;102091.81;;;6.99;100.00
11440;BME280;5776;51.814;4.510;2023-02-01T08:31:24;102082.91;;;6.98;100.00
11440;BME280;5776;51.814;4.510;2023-02-01T08:33:53;102085.38;;;7.00;100.00
11440;BME280;5776;51.814;4.510;2023-02-01T08:36:20;102081.38;;;7.02;100.00
11440;BME280;5776;51.814;4.510;2023-02-01T08:38:46;102081.13;;;7.04;100.00
11440;BME280;5776;51.814;4.510;2023-02-01T08:41:14;102078.22;;;7.05;100.00
11440;BME280;5776;51.814;4.510;2023-02-01T08:43:41;102081.94;;;7.04;100.00
11440;BME280;5776;51.814;4.510;2023-02-01T08:46:08;102082.81;;;7.05;100.00
11440;BME280;5776;51.814;4.510;2023-02-01T08:48:35;102064.94;;;7.04;100.00
11440;BME280;5776;51.814;4.510;2023-02-01T08:51:06;102059.91;;;7.07;100.00
11440;BME280;5776;51.814;4.510;2023-02-01T08:53:32;102068.56;;;7.09;100.00
11440;BME280;5776;51.814;4.510;2023-02-01T08:55:58;102070.69;;;7.07;100.00
11440;BME280;5776;51.814;4.510;2023-02-01T08:58:25;102059.91;;;7.07;100.00
11440;BME280;5776;51.814;4.510;2023-02-01T09:00:51;102068.00;;;7.07;100.00
11440;BME280;5776;51.814;4.510;2023-02-01T09:03:17;102073.97;;;7.09;100.00
11440;BME280;5776;51.814;4.510;2023-02-01T09:05:43;102072.81;;;7.05;100.00
11440;BME280;5776;51.814;4.510;2023-02-01T09:08:11;102073.41;;;7.07;100.00
11440;BME280;5776;51.814;4.510;2023-02-01T09:10:39;102064.44;;;7.07;100.00
11440;BME280;5776;51.814;4.510;2023-02-01T09:13:07;102052.13;;;7.11;100.00
11440;BME280;5776;51.814;4.510;2023-02-01T09:15:33;102052.13;;;7.11;100.00
11440;BME280;5776;51.814;4.510;2023-02-01T09:17:59;102051.31;;;7.10;100.00
11440;BME280;5776;51.814;4.510;2023-02-01T09:20:25;102045.09;;;7.10;100.00
11440;BME280;5776;51.814;4.510;2023-02-01T09:22:52;102040.03;;;7.13;100.00
11440;BME280;5776;51.814;4.510;2023-02-01T09:25:18;102041.44;;;7.16;100.00
11440;BME280;5776;51.814;4.510;2023-02-01T09:27:44;102043.56;;;7.14;100.00
11440;BME280;5776;51.814;4.510;2023-02-01T09:30:11;102036.03;;;7.16;100.00
11440;BME280;5776;51.814;4.510;2023-02-01T09:32:37;102031.44;;;7.17;100.00
11440;BME280;5776;51.814;4.510;2023-02-01T09:35:03;102038.50;;;7.18;100.00
11440;BME280;5776;51.814;4.510;2023-02-01T09:37:28;102056.13;;;7.20;100.00
11440;BME280;5776;51.814;4.510;2023-02-01T09:39:54;102052.59;;;7.20;100.00
11440;BME280;5776;51.814;4.510;2023-02-01T09:42:27;102049.06;;;7.19;100.00
11440;BME280;5776;51.814;4.510;2023-02-01T09:45:06;102065.28;;;7.19;100.00
11440;BME280;5776;51.814;4.510;2023-02-01T09:47:37;102050.94;;;7.19;100.00
11440;BME280;5776;51.814;4.510;2023-02-01T09:50:16;102056.69;;;7.22;100.00
11440;BME280;5776;51.814;4.510;2023-02-01T09:52:52;102065.88;;;7.21;100.00
11440;BME280;5776;51.814;4.510;2023-02-01T09:55:25;102064.81;;;7.22;100.00
11440;BME280;5776;51.814;4.510;2023-02-01T09:58:00;102073.75;;;7.23;100.00
11440;BME280;5776;51.814;4.510;2023-02-01T10:00:37;102072.91;;;7.22;100.00
11440;BME280;5776;51.814;4.510;2023-02-01T10:03:05;102081.00;;;7.22;100.00
11440;BME280;5776;51.814;4.510;2023-02-01T10:22:05;102066.59;;;7.28;100.00
11440;BME280;5776;51.814;4.510;2023-02-01T10:29:42;102081.97;;;7.28;100.00
11440;BME280;5776;51.814;4.510;2023-02-01T10:32:17;102070.91;;;7.29;100.00
11440;BME280;5776;51.814;4.510;2023-02-01T10:34:50;102082.78;;;7.28;100.00
11440;BME280;5776;51.814;4.510;2023-02-01T10:37:25;102063.66;;;7.30;100.00
11440;BME280;5776;51.814;4.510;2023-02-01T10:39:54;102069.88;;;7.30;100.00
11440;BME280;5776;51.814;4.510;2023-02-01T10:42:23;102073.16;;;7.32;100.00
11440;BME280;5776;51.814;4.510;2023-02-01T10:44:49;102073.97;;;7.33;100.00
11440;BME280;5776;51.814;4.510;2023-02-01T10:47:16;102073.84;;;7.40;100.00
11440;BME280;5776;51.814;4.510;2023-02-01T10:53:12;102053.50;;;7.37;100.00
11440;BME280;5776;51.814;4.510;2023-02-01T10:55:40;102057.06;;;7.38;100.00
11440;BME280;5776;51.814;4.510;2023-02-01T10:58:15;102057.88;;;7.38;100.00
11440;BME280;5776;51.814;4.510;2023-02-01T11:05:56;102037.06;;;7.39;100.00
11440;BME280;5776;51.814;4.510;2023-02-01T11:08:22;102038.00;;;7.44;100.00
11440;BME280;5776;51.814;4.510;2023-02-01T11:10:57;102040.81;;;7.49;100.00
11440;BME280;5776;51.814;4.510;2023-02-01T11:13:31;102047.41;;;7.53;100.00
11440;BME280;5776;51.814;4.510;2023-02-01T11:16:02;102052.31;;;7.56;100.00
11440;BME280;5776;51.814;4.510;2023-02-01T11:18:31;102054.78;;;7.58;100.00
11440;BME280;5776;51.814;4.510;2023-02-01T11:20:58;102045.38;;;7.61;100.00
11440;BME280;5776;51.814;4.510;2023-02-01T11:23:26;102055.94;;;7.62;100.00
11440;BME280;5776;51.814;4.510;2023-02-01T11:25:57;102044.78;;;7.58;100.00
11440;BME280;5776;51.814;4.510;2023-02-01T11:28:26;102032.69;;;7.61;100.00
11440;BME280;5776;51.814;4.510;2023-02-01T11:30:56;102040.56;;;7.63;100.00
11440;BME280;5776;51.814;4.510;2023-02-01T11:33:27;102030.19;;;7.60;100.00
11440;BME280;5776;51.814;4.510;2023-02-01T11:35:57;102036.47;;;7.60;100.00
11440;BME280;5776;51.814;4.510;2023-02-01T11:38:30;102026.94;;;7.57;100.00
11440;BME280;5776;51.814;4.510;2023-02-01T11:43:56;102038.41;;;7.65;100.00
11440;BME280;5776;51.814;4.510;2023-02-01T11:46:28;102041.59;;;7.62;100.00
11440;BME280;5776;51.814;4.510;2023-02-01T11:48:56;102039.38;;;7.58;100.00
11440;BME280;5776;51.814;4.510;2023-02-01T11:51:35;102044.78;;;7.58;100.00
11440;BME280;5776;51.814;4.510;2023-02-01T12:04:51;102031.88;;;7.61;100.00
11440;BME280;5776;51.814;4.510;2023-02-01T12:07:27;102034.09;;;7.64;100.00
11440;BME280;5776;51.814;4.510;2023-02-01T12:10:45;102031.38;;;7.64;100.00
11440;BME280;5776;51.814;4.510;2023-02-01T12:21:06;102036.06;;;7.68;100.00
11440;BME280;5776;51.814;4.510;2023-02-01T12:30:19;102021.25;;;7.71;100.00
11440;BME280;5776;51.814;4.510;2023-02-01T12:32:32;102022.06;;;7.71;100.00
11440;BME280;5776;51.814;4.510;2023-02-01T12:40:58;102012.88;;;7.72;100.00
11440;BME280;5776;51.814;4.510;2023-02-01T12:46:23;102018.66;;;7.76;100.00
11440;BME280;5776;51.814;4.510;2023-02-01T12:49:00;102016.53;;;7.78;100.00
11440;BME280;5776;51.814;4.510;2023-02-01T12:51:37;102012.75;;;7.79;100.00
11440;BME280;5776;51.814;4.510;2023-02-01T12:54:25;102019.81;;;7.80;100.00
11440;BME280;5776;51.814;4.510;2023-02-01T12:57:11;102019.81;;;7.80;100.00
11440;BME280;5776;51.814;4.510;2023-02-01T12:59:42;102006.84;;;7.82;100.00
11440;BME280;5776;51.814;4.510;2023-02-01T13:02:42;102008.53;;;7.83;100.00
11440;BME280;5776;51.814;4.510;2023-02-01T13:05:16;102008.75;;;7.82;100.00
11440;BME280;5776;51.814;4.510;2023-02-01T13:07:53;102002.63;;;7.86;100.00
11440;BME280;5776;51.814;4.510;2023-02-01T13:10:38;102005.81;;;7.83;100.00
11440;BME280;5776;51.814;4.510;2023-02-01T13:13:29;102007.22;;;7.86;100.00
11440;BME280;5776;51.814;4.510;2023-02-01T13:16:23;102005.31;;;7.86;100.00
11440;BME280;5776;51.814;4.510;2023-02-01T13:18:59;102020.03;;;7.90;100.00
11440;BME280;5776;51.814;4.510;2023-02-01T13:21:32;102009.66;;;7.87;100.00
11440;BME280;5776;51.814;4.510;2023-02-01T13:23:59;102006.97;;;7.87;100.00
11440;BME280;5776;51.814;4.510;2023-02-01T13:26:25;102016.72;;;7.88;100.00
11440;BME280;5776;51.814;4.510;2023-02-01T13:29:01;102017.78;;;7.87;100.00
11440;BME280;5776;51.814;4.510;2023-02-01T13:37:01;102018.34;;;7.89;100.00
11440;BME280;5776;51.814;4.510;2023-02-01T13:39:59;102025.44;;;7.90;100.00
11440;BME280;5776;51.814;4.510;2023-02-01T13:42:27;102020.03;;;7.90;100.00
11440;BME280;5776;51.814;4.510;2023-02-01T13:45:00;102012.72;;;7.91;100.00
11440;BME280;5776;51.814;4.510;2023-02-01T13:47:34;102020.03;;;7.90;100.00
11440;BME280;5776;51.814;4.510;2023-02-01T13:52:58;102023.28;;;7.92;100.00
11440;BME280;5776;51.814;4.510;2023-02-01T13:55:28;102019.53;;;7.93;100.00
11440;BME280;5776;51.814;4.510;2023-02-01T13:58:13;102025.75;;;7.94;100.00
11440;BME280;5776;51.814;4.510;2023-02-01T14:00:42;102011.41;;;7.93;100.00
11440;BME280;5776;51.814;4.510;2023-02-01T14:03:18;102024.94;;;7.93;100.00
11440;BME280;5776;51.814;4.510;2023-02-01T14:08:35;102008.72;;;7.93;100.00
11440;BME280;5776;51.814;4.510;2023-02-01T14:11:02;102009.75;;;7.92;100.00
11440;BME280;5776;51.814;4.510;2023-02-01T14:13:35;102003.31;;;7.93;100.00
11440;BME280;5776;51.814;4.510;2023-02-01T14:23:44;102016.81;;;7.93;100.00
11440;BME280;5776;51.814;4.510;2023-02-01T14:26:16;102004.13;;;7.94;100.00
11440;BME280;5776;51.814;4.510;2023-02-01T14:32:30;102010.59;;;7.93;100.00
11440;BME280;5776;51.814;4.510;2023-02-01T14:34:59;102014.13;;;7.93;100.00
11440;BME280;5776;51.814;4.510;2023-02-01T14:37:29;102008.13;;;7.91;100.00
11440;BME280;5776;51.814;4.510;2023-02-01T15:01:16;102013.31;;;7.93;100.00
11440;BME280;5776;51.814;4.510;2023-02-01T15:06:37;102021.97;;;7.95;100.00
11440;BME280;5776;51.814;4.510;2023-02-01T15:09:43;102017.41;;;7.95;100.00
11440;BME280;5776;51.814;4.510;2023-02-01T15:14:39;102022.81;;;7.95;100.00
11440;BME280;5776;51.814;4.510;2023-02-01T15:19:53;102023.16;;;7.99;100.00
11440;BME280;5776;51.814;4.510;2023-02-01T15:22:20;102029.63;;;7.98;100.00
11440;BME280;5776;51.814;4.510;2023-02-01T15:24:52;102024.47;;;7.96;100.00
11440;BME280;5776;51.814;4.510;2023-02-01T15:27:19;102022.66;;;8.02;100.00
11440;BME280;5776;51.814;4.510;2023-02-01T15:29:45;102022.09;;;8.00;100.00
11440;BME280;5776;51.814;4.510;2023-02-01T15:32:33;102027.75;;;7.98;100.00
11440;BME280;5776;51.814;4.510;2023-02-01T15:35:00;102033.75;;;8.00;100.00
11440;BME280;5776;51.814;4.510;2023-02-01T15:37:27;102026.44;;;8.01;100.00
11440;BME280;5776;51.814;4.510;2023-02-01T15:42:49;102031.72;;;8.08;100.00
11440;BME280;5776;51.814;4.510;2023-02-01T15:45:18;102028.44;;;8.06;100.00